Time;durP1;ratioP1;P1;durP2;ratioP2;P2;SDS_P1;SDS_P2;PMS_P1;PMS_P2;Temp;Humidity;BMP_temperature;BMP_pressure;BME280_temperature;BME280_humidity;BME280_pressure;Samples;Min_cycle;Max_cycle;Signal;HPM_P1;HPM_P2
2022/01/21 00:05:03;;;;;;;9.90;4.20;;;;;;;0.32;61.12;98844.48;221207;1275;140697;-60
2022/01/21 00:10:07;;;;;;;10.50;4.50;;;;;;;0.29;61.06;98851.54;221340;1275;139049;-63
2022/01/21 00:15:11;;;;;;;9.90;3.90;;;;;;;0.28;61.08;98852.09;221201;1276;140681;-63
2022/01/21 00:30:57;;;;;;;8.30;3.30;;;;;;;0.18;61.00;98848.83;221408;1276;139326;-62
2022/01/21 00:36:01;;;;;;;10.70;3.40;;;;;;;0.17;61.15;98853.56;221263;1275;139261;-62
2022/01/21 00:41:07;;;;;;;9.60;3.50;;;;;;;0.17;61.12;98860.36;221437;1276;139385;-62
2022/01/21 00:46:11;;;;;;;7.50;3.40;;;;;;;0.13;61.03;98863.25;221346;1276;138701;-61
2022/01/21 00:51:14;;;;;;;10.50;3.50;;;;;;;0.14;61.29;98862.35;221324;1276;138954;-63
2022/01/21 00:56:17;;;;;;;9.00;3.10;;;;;;;0.20;61.27;98870.41;221332;1276;139208;-63
2022/01/21 01:01:20;;;;;;;6.00;2.70;;;;;;;0.18;61.09;98880.06;221521;1276;139360;-63
2022/01/21 01:06:23;;;;;;;8.60;2.80;;;;;;;0.15;61.12;98877.32;221328;1276;138875;-59
2022/01/21 01:21:56;;;;;;;11.60;3.10;;;;;;;0.13;61.30;98886.45;221221;1277;138801;-63
2022/01/21 01:32:20;;;;;;;14.20;3.70;;;;;;;0.15;61.42;98891.80;221480;1276;125604;-62
2022/01/21 01:37:38;;;;;;;10.20;3.40;;;;;;;0.11;61.46;98898.52;221268;1276;138978;-61
2022/01/21 01:53:09;;;;;;;5.80;2.70;;;;;;;0.11;61.85;98911.27;221310;1276;139866;-62
2022/01/21 01:58:14;;;;;;;10.20;3.30;;;;;;;0.14;62.24;98915.19;221330;1276;138964;-62
2022/01/21 02:03:17;;;;;;;10.10;3.10;;;;;;;0.17;62.25;98920.36;221234;1275;138904;-61
2022/01/21 02:08:20;;;;;;;8.00;2.40;;;;;;;0.20;62.32;98923.61;221243;1276;138930;-62
2022/01/21 02:13:29;;;;;;;5.20;2.50;;;;;;;0.22;61.92;98935.61;221263;1276;138677;-60
2022/01/21 02:24:21;;;;;;;6.60;1.70;;;;;;;0.18;61.28;98951.73;221263;1276;139390;-63
2022/01/21 02:30:07;;;;;;;6.50;1.60;;;;;;;0.09;60.90;98948.80;221293;1277;139284;-63
2022/01/21 02:34:53;;;;;;;5.60;1.30;;;;;;;0.01;60.63;98944.44;220985;1276;138672;-62
2022/01/21 02:39:56;;;;;;;3.70;1.10;;;;;;;-0.08;60.18;98945.48;220978;1276;139547;-62
2022/01/21 02:45:00;;;;;;;4.20;1.40;;;;;;;-0.12;60.01;98944.88;221126;1276;139278;-63
2022/01/21 02:50:04;;;;;;;4.80;1.50;;;;;;;-0.17;59.78;98949.52;221309;1276;139234;-61
2022/01/21 02:55:10;;;;;;;6.10;1.60;;;;;;;-0.22;59.68;98962.51;221221;1276;139170;-59
2022/01/21 03:00:14;;;;;;;5.70;1.70;;;;;;;-0.23;59.57;98973.68;221267;1276;139578;-60
2022/01/21 03:05:18;;;;;;;4.50;2.00;;;;;;;-0.27;59.57;98975.86;221224;1276;140031;-59
2022/01/21 03:10:26;;;;;;;5.80;2.20;;;;;;;-0.31;59.64;98984.12;221211;1276;139513;-61
2022/01/21 03:15:29;;;;;;;;;;;;;;;-0.35;59.79;98987.35;221451;1274;139022;-62
2022/01/21 03:20:32;;;;;;;6.30;2.00;;;;;;;-0.38;59.70;98992.45;221160;1276;125725;-61
2022/01/21 03:25:35;;;;;;;4.90;1.80;;;;;;;-0.42;59.75;98998.11;221434;1276;139049;-60
2022/01/21 03:30:40;;;;;;;4.00;2.10;;;;;;;-0.54;59.39;98996.58;221169;1276;138868;-63
2022/01/21 03:35:46;;;;;;;6.20;1.80;;;;;;;-0.59;59.47;99004.85;221277;1276;138811;-61
2022/01/21 03:40:49;;;;;;;9.10;2.10;;;;;;;-0.64;59.28;99012.27;221417;1276;139670;-62
2022/01/21 03:45:53;;;;;;;4.70;2.10;;;;;;;-0.71;59.26;99014.48;221020;1276;138808;-63
2022/01/21 03:50:57;;;;;;;5.00;2.10;;;;;;;-0.70;59.50;99015.68;221236;1275;140838;-62
2022/01/21 03:56:00;;;;;;;6.00;2.10;;;;;;;-0.71;59.58;99018.13;221044;1276;139164;-62
2022/01/21 04:01:04;;;;;;;4.40;1.70;;;;;;;-0.72;59.47;99020.23;221483;1276;138905;-60
2022/01/21 04:06:08;;;;;;;5.70;2.20;;;;;;;-0.75;59.41;99028.99;221360;1275;139586;-62
2022/01/21 04:11:11;;;;;;;5.50;1.90;;;;;;;-0.79;59.40;99028.70;221007;1275;171952;-62
2022/01/21 04:16:19;;;;;;;4.80;1.60;;;;;;;-0.80;59.34;99038.67;221095;1276;139139;-61
2022/01/21 04:21:23;;;;;;;6.50;1.60;;;;;;;-0.84;59.19;99047.27;221255;1276;139303;-63
2022/01/21 04:26:29;;;;;;;6.30;1.80;;;;;;;-0.88;59.17;99050.10;221267;1276;138501;-58
2022/01/21 04:31:41;;;;;;;9.20;2.30;;;;;;;-0.96;59.10;99049.88;221353;1276;139470;-62
2022/01/21 04:36:45;;;;;;;6.70;2.20;;;;;;;-1.02;59.26;99054.33;221105;1275;138548;-62
2022/01/21 04:52:15;;;;;;;7.90;3.00;;;;;;;-1.07;59.91;99065.88;221166;1276;139974;-61
2022/01/21 04:57:25;;;;;;;8.20;3.10;;;;;;;-1.12;60.09;99072.76;221147;1276;139736;-61
2022/01/21 05:02:30;;;;;;;6.60;3.20;;;;;;;-1.13;60.27;99070.51;221226;1276;139651;-63
2022/01/21 05:07:36;;;;;;;7.20;3.30;;;;;;;-1.16;60.30;99070.38;221073;1276;139714;-63
2022/01/21 05:12:40;;;;;;;8.00;3.70;;;;;;;-1.25;60.49;99074.67;221347;1276;139824;-62
2022/01/21 05:17:48;;;;;;;8.00;3.30;;;;;;;-1.31;60.54;99075.27;221053;1276;139590;-61
2022/01/21 05:23:11;;;;;;;7.90;3.80;;;;;;;-1.34;60.52;99073.74;221037;1276;139131;-60
2022/01/21 05:28:15;;;;;;;8.20;3.20;;;;;;;-1.36;60.60;99072.73;221088;1277;139574;-62
2022/01/21 05:33:56;;;;;;;6.50;3.00;;;;;;;-1.38;60.40;99076.06;221182;1276;138982;-59
2022/01/21 05:39:22;;;;;;;5.60;2.90;;;;;;;-1.39;60.39;99070.52;221356;1276;139214;-61
2022/01/21 05:50:04;;;;;;;8.50;3.00;;;;;;;-1.40;60.26;99078.70;221296;1276;140060;-59
2022/01/21 05:55:33;;;;;;;7.50;3.20;;;;;;;-1.40;60.35;99091.59;221182;1276;140063;-61
2022/01/21 06:00:50;;;;;;;8.90;2.80;;;;;;;-1.42;60.43;99104.48;221446;1276;140837;-61
2022/01/21 06:05:53;;;;;;;6.90;3.60;;;;;;;-1.40;60.44;99114.04;221159;1276;139372;-62
2022/01/21 06:10:56;;;;;;;6.40;3.10;;;;;;;-1.36;60.49;99113.45;221227;1276;139536;-61
2022/01/21 06:15:59;;;;;;;8.60;3.40;;;;;;;-1.34;60.44;99108.55;221223;1276;140379;-62
2022/01/21 06:21:03;;;;;;;8.20;3.80;;;;;;;-1.32;60.60;99106.27;221372;1275;139553;-62
2022/01/21 06:26:07;;;;;;;9.80;3.30;;;;;;;-1.28;60.66;99107.95;221259;1276;140051;-60
2022/01/21 06:31:10;;;;;;;6.20;3.00;;;;;;;-1.26;60.63;99106.54;221420;1275;139299;-61
2022/01/21 06:36:14;;;;;;;8.50;3.30;;;;;;;-1.25;60.72;99108.45;221408;1276;139259;-59
2022/01/21 06:41:17;;;;;;;8.10;2.80;;;;;;;-1.25;60.79;99110.53;221390;1276;140306;-62
2022/01/21 06:46:20;;;;;;;7.30;2.70;;;;;;;-1.24;60.97;99107.05;221455;1276;139819;-62
2022/01/21 06:51:23;;;;;;;7.50;2.80;;;;;;;-1.26;61.01;99106.19;221185;1276;139717;-59
2022/01/21 06:56:26;;;;;;;5.80;2.90;;;;;;;-1.25;61.35;99118.02;221023;1276;140066;-60
2022/01/21 07:01:29;;;;;;;7.20;2.70;;;;;;;-1.21;61.33;99117.08;221421;1276;139380;-63
2022/01/21 07:06:32;;;;;;;10.00;3.10;;;;;;;-1.17;61.57;99130.45;221314;1276;139545;-60
2022/01/21 07:11:35;;;;;;;9.40;3.40;;;;;;;-1.12;61.77;99132.64;221325;1276;140488;-59
2022/01/21 07:16:38;;;;;;;8.00;2.70;;;;;;;-1.12;61.83;99133.85;221182;1276;140091;-61
2022/01/21 07:21:41;;;;;;;8.50;2.90;;;;;;;-1.07;61.99;99138.48;221292;1277;139135;-62
2022/01/21 07:26:45;;;;;;;8.10;2.90;;;;;;;-1.02;62.18;99137.20;221434;1276;139484;-62
2022/01/21 07:31:53;;;;;;;9.90;3.00;;;;;;;-1.00;62.33;99148.14;221633;1276;138621;-59
2022/01/21 07:36:56;;;;;;;7.70;3.10;;;;;;;-1.00;62.73;99156.66;221000;1276;140369;-62
2022/01/21 07:41:59;;;;;;;11.90;3.80;;;;;;;-1.02;62.69;99153.91;221481;1276;139761;-62
2022/01/21 07:47:02;;;;;;;10.60;3.90;;;;;;;-1.01;62.99;99149.55;221435;1274;139118;-61
2022/01/21 07:52:05;;;;;;;13.20;4.40;;;;;;;-1.04;63.11;99150.11;221416;1276;139063;-60
2022/01/21 07:57:10;;;;;;;13.40;4.80;;;;;;;-1.08;63.32;99141.11;221346;1276;140292;-61
2022/01/21 08:02:12;;;;;;;13.30;4.60;;;;;;;-1.04;63.83;99144.19;221380;1275;141746;-59
2022/01/21 08:07:16;;;;;;;9.10;4.60;;;;;;;-0.97;63.86;99146.36;221435;1276;139670;-61
2022/01/21 08:12:19;;;;;;;9.10;4.80;;;;;;;-0.93;64.05;99145.77;221124;1277;139292;-61
2022/01/21 08:17:23;;;;;;;13.10;4.80;;;;;;;-0.90;64.11;99147.13;221442;1276;139339;-61
2022/01/21 08:22:26;;;;;;;11.90;5.40;;;;;;;-0.91;64.02;99153.42;221410;1276;139835;-60
2022/01/21 08:27:30;;;;;;;12.10;5.50;;;;;;;-0.89;64.26;99148.67;221394;1276;139193;-62
2022/01/21 08:32:33;;;;;;;11.00;5.50;;;;;;;-0.88;64.35;99151.64;221468;1275;138822;-63
2022/01/21 08:37:37;;;;;;;13.00;6.50;;;;;;;-0.89;64.50;99158.44;221505;1276;139174;-61
2022/01/21 08:42:40;;;;;;;9.00;4.80;;;;;;;-0.90;64.67;99166.98;221127;1276;139306;-62
2022/01/21 08:47:43;;;;;;;11.70;5.90;;;;;;;-0.88;64.78;99165.39;221370;1276;138937;-61
2022/01/21 08:52:47;;;;;;;13.50;5.20;;;;;;;-0.85;64.87;99171.27;221201;1276;141584;-62
2022/01/21 08:57:50;;;;;;;14.20;5.20;;;;;;;-0.77;64.87;99177.77;221287;1276;139745;-62
2022/01/21 09:02:53;;;;;;;12.80;5.90;;;;;;;-0.70;64.85;99173.84;221353;1276;139392;-62
2022/01/21 09:07:56;;;;;;;19.50;6.50;;;;;;;-0.63;64.84;99185.95;221478;1276;139151;-62
2022/01/21 09:12:59;;;;;;;18.00;5.80;;;;;;;-0.62;64.89;99189.23;221395;1276;138599;-60
2022/01/21 09:18:05;;;;;;;12.40;5.20;;;;;;;-0.60;64.82;99188.52;221460;1274;140465;-61
2022/01/21 09:23:08;;;;;;;12.30;5.40;;;;;;;-0.55;64.86;99191.04;221342;1276;140250;-59
2022/01/21 09:28:11;;;;;;;14.90;6.40;;;;;;;-0.49;65.00;99186.25;221287;1276;139689;-61
2022/01/21 09:33:15;;;;;;;17.10;6.20;;;;;;;-0.44;65.08;99187.56;221371;1276;140164;-60
2022/01/21 09:38:19;;;;;;;12.50;5.70;;;;;;;-0.45;64.99;99183.75;221386;1275;142611;-62
2022/01/21 09:43:23;;;;;;;14.70;5.90;;;;;;;-0.47;65.00;99185.17;221366;1277;139112;-62
2022/01/21 09:48:30;;;;;;;14.20;6.10;;;;;;;-0.44;65.10;99183.91;221301;1276;141181;-62
2022/01/21 09:53:34;;;;;;;14.30;6.00;;;;;;;-0.38;65.41;99187.83;221283;1276;141818;-62
2022/01/21 09:58:40;;;;;;;14.60;5.90;;;;;;;-0.33;65.48;99184.61;221360;1276;140940;-61
2022/01/21 10:03:49;;;;;;;17.60;6.10;;;;;;;-0.24;65.45;99184.29;221288;1276;140321;-62
2022/01/21 10:08:56;;;;;;;18.30;5.80;;;;;;;-0.17;65.59;99177.38;221328;1277;140294;-62
2022/01/21 10:13:59;;;;;;;11.60;5.60;;;;;;;-0.17;65.40;99176.86;221283;1277;138883;-61
2022/01/21 10:19:05;;;;;;;15.10;6.40;;;;;;;-0.18;65.17;99167.81;221410;1275;139876;-59
2022/01/21 10:24:13;;;;;;;10.80;4.10;;;;;;;-0.17;65.13;99158.90;221278;1277;138993;-60
2022/01/21 10:29:17;;;;;;;13.40;4.60;;;;;;;-0.12;65.15;99155.85;221235;1277;140812;-61
2022/01/21 10:34:34;;;;;;;12.70;4.80;;;;;;;-0.04;65.02;99160.25;221245;1276;139791;-61
2022/01/21 10:39:59;;;;;;;14.70;4.90;;;;;;;0.02;64.73;99153.69;221153;1276;138592;-62
2022/01/21 10:45:06;;;;;;;11.00;4.80;;;;;;;0.06;64.58;99151.70;221391;1276;138899;-62
2022/01/21 10:50:13;;;;;;;13.00;4.00;;;;;;;0.10;64.74;99141.17;221336;1276;139202;-61
2022/01/21 10:55:30;;;;;;;10.60;4.30;;;;;;;0.15;64.52;99137.94;221443;1277;139750;-62
2022/01/21 11:00:34;;;;;;;10.30;4.00;;;;;;;0.20;64.26;99140.28;221046;1276;140190;-62
2022/01/21 11:05:41;;;;;;;10.60;4.40;;;;;;;0.22;63.99;99139.89;221311;1276;139401;-63
2022/01/21 11:10:49;;;;;;;14.60;4.40;;;;;;;0.22;63.95;99136.74;221365;1276;139314;-62
2022/01/21 11:15:58;;;;;;;10.20;4.00;;;;;;;0.25;63.99;99137.05;221148;1276;138477;-62
2022/01/21 11:21:23;;;;;;;13.00;4.50;;;;;;;0.30;63.92;99133.98;221173;1277;139826;-62
2022/01/21 11:26:26;;;;;;;10.30;4.00;;;;;;;0.39;63.95;99128.75;221354;1276;139450;-62
2022/01/21 11:31:30;;;;;;;14.50;5.40;;;;;;;0.49;63.91;99128.38;221495;1274;138877;-61
2022/01/21 11:36:45;;;;;;;11.90;4.20;;;;;;;0.46;63.97;99126.69;221318;1277;141850;-61
2022/01/21 11:41:50;;;;;;;15.10;5.60;;;;;;;0.40;64.19;99126.83;221444;1276;139674;-62
2022/01/21 11:47:49;;;;;;;12.10;4.50;;;;;;;0.35;64.26;99122.90;221261;1277;138939;-63
2022/01/21 11:52:26;;;;;;;12.20;5.10;;;;;;;0.30;64.58;99114.80;221241;1275;138671;-61
2022/01/21 11:57:31;;;;;;;12.50;3.90;;;;;;;0.29;64.75;99112.19;221049;1277;139111;-63
2022/01/21 12:02:35;;;;;;;10.40;4.30;;;;;;;0.18;64.74;99115.36;221057;1277;139153;-60
2022/01/21 12:07:48;;;;;;;11.90;4.40;;;;;;;0.13;64.88;99108.31;221541;1276;140145;-63
2022/01/21 12:12:54;;;;;;;8.10;4.10;;;;;;;0.17;65.08;99111.36;221501;1274;138964;-62
2022/01/21 12:18:04;;;;;;;12.50;4.30;;;;;;;0.19;65.24;99126.69;221287;1276;139145;-62
2022/01/21 12:23:14;;;;;;;12.00;4.80;;;;;;;0.00;65.41;99122.85;221367;1276;139314;-61
2022/01/21 12:28:20;;;;;;;15.00;5.00;;;;;;;-0.19;66.18;99124.07;221378;1276;141469;-63
2022/01/21 12:33:55;;;;;;;12.70;3.70;;;;;;;-0.27;66.19;99124.71;221222;1277;139485;-63
2022/01/21 12:44:07;;;;;;;15.30;5.30;;;;;;;-0.22;66.24;99115.58;221445;1276;139975;-62
2022/01/21 12:49:47;;;;;;;19.30;5.20;;;;;;;-0.15;66.43;99111.60;221417;1276;139539;-61
2022/01/21 13:00:30;;;;;;;12.30;4.60;;;;;;;-0.04;65.98;99107.24;221371;1276;140393;-63
2022/01/21 13:05:43;;;;;;;14.20;4.40;;;;;;;-0.03;65.92;99113.15;221191;1276;139116;-62
2022/01/21 13:10:46;;;;;;;17.50;4.80;;;;;;;-0.08;65.77;99117.42;221302;1277;140226;-64
2022/01/21 13:15:52;;;;;;;10.70;3.70;;;;;;;-0.09;66.11;99120.05;221114;1276;140399;-59
2022/01/21 13:20:58;;;;;;;13.20;4.50;;;;;;;-0.17;66.05;99121.41;221437;1277;139848;-63
2022/01/21 13:26:23;;;;;;;13.40;5.20;;;;;;;-0.18;66.13;99120.04;221549;1277;138952;-62
2022/01/21 13:31:28;;;;;;;12.80;4.80;;;;;;;-0.16;66.39;99114.08;221316;1276;139356;-64
2022/01/21 13:36:50;;;;;;;15.30;5.50;;;;;;;-0.15;66.11;99115.97;221265;1276;139656;-62
2022/01/21 13:42:00;;;;;;;7.90;3.70;;;;;;;-0.20;66.01;99112.24;221151;1277;140006;-63
2022/01/21 13:47:31;;;;;;;12.70;4.10;;;;;;;-0.22;66.19;99111.22;221174;1276;140526;-64
2022/01/21 13:53:01;;;;;;;9.70;4.40;;;;;;;-0.16;65.94;99115.98;221136;1276;139896;-60
2022/01/21 13:58:07;;;;;;;17.70;4.50;;;;;;;-0.10;65.83;99123.55;221293;1275;139699;-61
2022/01/21 14:03:13;;;;;;;11.90;4.60;;;;;;;-0.05;65.53;99125.38;221304;1276;139178;-62
2022/01/21 14:08:20;;;;;;;13.80;4.70;;;;;;;-0.06;65.37;99131.85;221425;1275;139498;-63
2022/01/21 14:13:27;;;;;;;11.40;4.10;;;;;;;-0.12;65.18;99139.98;221319;1275;139015;-62
2022/01/21 14:18:32;;;;;;;10.40;4.30;;;;;;;-0.18;65.22;99139.23;221188;1276;139219;-62
2022/01/21 14:23:37;;;;;;;9.60;3.30;;;;;;;-0.23;65.22;99135.82;221316;1276;139797;-63
2022/01/21 14:28:58;;;;;;;14.40;4.90;;;;;;;-0.30;64.99;99136.09;221308;1276;139386;-62
2022/01/21 14:34:23;;;;;;;11.40;4.40;;;;;;;-0.38;65.28;99138.51;221324;1276;139303;-62
2022/01/21 14:39:27;;;;;;;11.30;4.10;;;;;;;-0.45;65.23;99136.19;221277;1275;139451;-62
2022/01/21 14:44:42;;;;;;;12.00;4.50;;;;;;;-0.51;65.30;99144.11;221475;1276;139399;-63
2022/01/21 14:50:08;;;;;;;11.70;4.20;;;;;;;-0.61;65.18;99147.58;221102;1276;139016;-62
2022/01/21 14:55:26;;;;;;;8.50;3.70;;;;;;;-0.64;65.31;99138.23;221288;1276;139735;-62
2022/01/21 15:00:35;;;;;;;15.50;5.10;;;;;;;-0.67;65.48;99141.91;221314;1276;139108;-60
2022/01/21 15:05:42;;;;;;;9.60;3.90;;;;;;;-0.63;65.71;99151.97;221371;1276;140852;-63
2022/01/21 15:10:46;;;;;;;12.80;3.80;;;;;;;-0.62;66.13;99142.19;221167;1276;139709;-63
2022/01/21 15:15:53;;;;;;;9.30;3.70;;;;;;;-0.65;66.04;99138.23;221333;1276;139751;-63
2022/01/21 15:20:56;;;;;;;11.90;4.40;;;;;;;-0.71;66.21;99129.95;221355;1276;140622;-61
2022/01/21 15:25:59;;;;;;;11.40;4.30;;;;;;;-0.77;66.29;99129.00;221379;1276;139132;-64
2022/01/21 15:31:03;;;;;;;9.80;4.40;;;;;;;-0.86;66.00;99121.13;221328;1276;139214;-62
2022/01/21 15:36:06;;;;;;;11.00;4.30;;;;;;;-0.89;66.13;99126.58;221336;1277;139383;-64
2022/01/21 15:41:09;;;;;;;11.00;3.70;;;;;;;-0.83;65.95;99127.00;221361;1276;139481;-64
2022/01/21 15:46:13;;;;;;;9.50;3.60;;;;;;;-0.69;65.59;99128.55;221279;1276;139799;-64
2022/01/21 15:51:16;;;;;;;12.20;3.90;;;;;;;-0.63;65.33;99128.96;221028;1276;140048;-65
2022/01/21 15:56:20;;;;;;;11.70;4.10;;;;;;;-0.55;64.94;99136.16;221304;1276;139574;-63
2022/01/21 16:01:43;;;;;;;9.40;4.40;;;;;;;-0.51;64.59;99138.54;221358;1276;139163;-62
2022/01/21 16:06:47;;;;;;;12.80;5.50;;;;;;;-0.52;64.30;99130.02;221224;1277;217754;-64
2022/01/21 16:11:52;;;;;;;11.90;5.10;;;;;;;-0.57;64.17;99136.19;221341;1274;139754;-64
2022/01/21 16:16:55;;;;;;;11.60;4.70;;;;;;;-0.57;64.23;99145.08;221140;1276;139125;-63
2022/01/21 16:21:58;;;;;;;13.10;4.90;;;;;;;-0.58;64.16;99145.09;221367;1276;140291;-62
2022/01/21 16:27:02;;;;;;;13.90;5.00;;;;;;;-0.61;64.34;99142.88;221378;1274;139170;-60
2022/01/21 16:32:05;;;;;;;14.90;4.80;;;;;;;-0.60;64.26;99149.66;221308;1275;141401;-60
2022/01/21 16:37:08;;;;;;;13.30;5.30;;;;;;;-0.66;64.33;99148.87;221396;1276;140157;-62
2022/01/21 16:42:12;;;;;;;13.80;5.90;;;;;;;-0.70;64.42;99144.91;221149;1276;139267;-60
2022/01/21 16:47:16;;;;;;;14.00;6.40;;;;;;;-0.74;64.47;99142.89;221260;1276;139021;-61
2022/01/21 16:52:19;;;;;;;15.10;6.60;;;;;;;-0.77;64.50;99139.63;221280;1276;138684;-63
2022/01/21 16:57:26;;;;;;;17.30;6.30;;;;;;;-0.77;64.67;99143.27;221406;1276;139861;-63
2022/01/21 17:02:29;;;;;;;11.90;5.20;;;;;;;-0.76;64.77;99146.75;221449;1276;139176;-64
2022/01/21 17:07:33;;;;;;;14.40;5.40;;;;;;;-0.74;64.94;99153.16;221344;1276;139382;-61
2022/01/21 17:12:36;;;;;;;15.70;6.60;;;;;;;-0.75;64.80;99158.23;221345;1276;139530;-63
2022/01/21 17:17:40;;;;;;;16.80;6.80;;;;;;;-0.76;64.80;99161.56;221427;1276;139294;-60
2022/01/21 17:22:44;;;;;;;18.70;7.10;;;;;;;-0.78;65.01;99175.52;221284;1276;140331;-59
2022/01/21 17:27:48;;;;;;;15.40;7.00;;;;;;;-0.74;65.07;99168.50;220875;1276;139825;-61
2022/01/21 17:32:51;;;;;;;18.30;6.20;;;;;;;-0.72;65.08;99167.58;221299;1276;139360;-64
2022/01/21 17:37:54;;;;;;;16.90;6.30;;;;;;;-0.68;65.12;99166.50;221566;1276;140061;-64
2022/01/21 17:42:57;;;;;;;15.80;6.80;;;;;;;-0.63;65.14;99168.34;221231;1276;141993;-61
2022/01/21 17:48:00;;;;;;;22.30;7.80;;;;;;;-0.56;65.16;99173.98;221354;1276;141814;-62
2022/01/21 17:53:09;;;;;;;15.80;6.60;;;;;;;-0.50;65.03;99169.18;221186;1276;138922;-63
2022/01/21 17:58:12;;;;;;;20.50;8.10;;;;;;;-0.39;65.12;99161.86;221291;1276;139186;-63
2022/01/21 18:03:15;;;;;;;15.50;7.00;;;;;;;-0.34;64.80;99158.48;221375;1276;139229;-64
2022/01/21 18:08:19;;;;;;;23.40;7.70;;;;;;;-0.38;64.48;99164.81;221456;1276;139373;-64
2022/01/21 18:13:22;;;;;;;23.80;8.50;;;;;;;-0.39;64.39;99166.40;221466;1275;139215;-63
2022/01/21 18:18:27;;;;;;;18.30;7.10;;;;;;;-0.39;64.44;99165.70;221345;1276;140063;-63
2022/01/21 18:23:31;;;;;;;15.00;6.90;;;;;;;-0.39;64.41;99167.80;221282;1276;139284;-64
2022/01/21 18:28:34;;;;;;;15.20;6.80;;;;;;;-0.42;64.42;99173.95;221222;1276;140398;-62
2022/01/21 18:33:38;;;;;;;15.70;6.40;;;;;;;-0.41;64.31;99169.77;221382;1276;140981;-63
2022/01/21 18:38:41;;;;;;;20.60;6.30;;;;;;;-0.34;64.29;99165.09;221456;1276;140206;-63
2022/01/21 18:44:00;;;;;;;18.10;7.10;;;;;;;-0.33;64.28;99160.20;221278;1276;140026;-62
2022/01/21 18:49:08;;;;;;;14.20;7.00;;;;;;;-0.34;64.31;99162.13;221177;1276;140006;-63
2022/01/21 18:54:16;;;;;;;17.30;7.40;;;;;;;-0.34;64.27;99160.58;221328;1276;139944;-63
2022/01/21 18:59:19;;;;;;;21.50;8.60;;;;;;;-0.36;64.33;99153.13;221329;1275;140591;-66
2022/01/21 19:04:22;;;;;;;20.20;9.00;;;;;;;-0.35;64.61;99148.04;221336;1276;141037;-65
2022/01/21 19:09:25;;;;;;;23.30;9.00;;;;;;;-0.33;64.76;99147.83;221298;1276;138982;-65
2022/01/21 19:14:28;;;;;;;22.80;8.30;;;;;;;-0.34;64.59;99141.23;221281;1276;139083;-61
2022/01/21 19:19:31;;;;;;;20.90;7.30;;;;;;;-0.34;64.51;99142.43;221423;1276;139804;-60
2022/01/21 19:24:52;;;;;;;18.50;7.60;;;;;;;-0.31;64.64;99140.12;221204;1276;140069;-63
2022/01/21 19:29:56;;;;;;;16.60;7.40;;;;;;;-0.25;64.77;99141.77;221074;1276;139374;-64
2022/01/21 19:34:58;;;;;;;17.70;7.60;;;;;;;-0.26;64.53;99142.64;221556;1275;139982;-59
2022/01/21 19:40:04;;;;;;;15.50;8.00;;;;;;;-0.27;64.38;99141.29;221298;1277;139375;-63
2022/01/21 19:45:11;;;;;;;;;;;;;;;-0.29;64.62;99133.64;221404;1276;139731;-63
2022/01/21 19:50:16;;;;;;;14.80;6.80;;;;;;;-0.28;64.45;99137.81;221536;1276;126372;-62
2022/01/21 19:55:19;;;;;;;20.10;8.30;;;;;;;-0.26;64.66;99148.25;221355;1276;139031;-63
2022/01/21 20:10:56;;;;;;;18.50;6.90;;;;;;;-0.26;64.63;99144.05;221264;1275;140597;-61
2022/01/21 20:15:59;;;;;;;16.50;6.90;;;;;;;-0.24;64.58;99141.76;221412;1275;139566;-61
2022/01/21 20:21:02;;;;;;;18.80;7.90;;;;;;;-0.23;64.71;99134.60;221550;1276;235047;-60
2022/01/21 20:26:08;;;;;;;20.00;8.30;;;;;;;-0.22;64.88;99130.73;221365;1275;139343;-61
2022/01/21 20:31:13;;;;;;;18.20;7.70;;;;;;;-0.20;64.81;99124.77;221333;1275;140478;-58
2022/01/21 20:36:24;;;;;;;19.70;8.10;;;;;;;-0.22;64.74;99123.41;221377;1275;139588;-61
2022/01/21 20:41:49;;;;;;;20.10;8.00;;;;;;;-0.27;64.62;99127.34;220332;1275;139154;-60
2022/01/21 20:46:56;;;;;;;25.70;9.80;;;;;;;-0.35;64.75;99132.88;221235;1275;139637;-60
2022/01/21 20:52:00;;;;;;;21.60;7.70;;;;;;;-0.45;64.71;99137.91;221298;1275;139618;-59
2022/01/21 20:57:04;;;;;;;19.60;8.00;;;;;;;-0.56;64.72;99142.98;221470;1276;140087;-59
2022/01/21 21:02:07;;;;;;;20.50;9.00;;;;;;;-0.62;64.63;99134.53;221480;1274;140048;-60
2022/01/21 21:07:11;;;;;;;23.00;9.20;;;;;;;-0.67;64.76;99136.68;221249;1275;139223;-61
2022/01/21 21:12:15;;;;;;;19.50;7.60;;;;;;;-0.72;64.86;99136.94;221403;1275;139654;-61
2022/01/21 21:27:49;;;;;;;16.80;6.00;;;;;;;-0.77;64.55;99114.89;221470;1275;140289;-58
2022/01/21 23:03:21;;;;;;;15.60;7.20;;;;;;;-0.79;66.07;99091.59;221338;1276;139095;-62
2022/01/21 23:08:35;;;;;;;18.00;7.60;;;;;;;-0.79;66.52;99088.45;221328;1276;141620;-61
2022/01/21 23:13:40;;;;;;;18.50;7.90;;;;;;;-0.70;66.58;99086.75;221160;1277;140059;-63
2022/01/21 23:18:43;;;;;;;22.50;7.60;;;;;;;-0.64;66.69;99081.26;221391;1275;141828;-64
2022/01/21 23:23:46;;;;;;;23.50;8.80;;;;;;;-0.58;66.75;99085.16;221356;1275;139308;-61
2022/01/21 23:29:00;;;;;;;17.70;7.70;;;;;;;-0.58;66.82;99083.59;221362;1275;139384;-63
2022/01/21 23:34:06;;;;;;;19.80;8.10;;;;;;;-0.56;66.84;99090.17;221432;1276;139474;-63
2022/01/21 23:44:18;;;;;;;11.00;4.70;;;;;;;-0.62;66.86;99085.05;221451;1275;139166;-63
2022/01/21 23:49:33;;;;;;;11.30;3.20;;;;;;;-0.60;67.14;99079.27;220566;1275;140564;-61
2022/01/21 23:54:36;;;;;;;3.60;1.80;;;;;;;-0.54;67.10;99071.84;221398;1277;208316;-64
2022/01/21 23:59:39;;;;;;;6.30;2.30;;;;;;;-0.48;67.25;99079.59;221363;1275;139357;-63
